createdAt,value
2019-05-03T00:01:33.174Z,24.12
2019-05-03T00:04:03.682Z,23.98
2019-05-03T00:06:35.066Z,28.35
2019-05-03T00:09:06.878Z,22.93
2019-05-03T00:11:36.875Z,26.00
2019-05-03T00:14:06.333Z,29.63
2019-05-03T00:16:48.527Z,30.52
2019-05-03T00:19:17.094Z,29.95
2019-05-03T00:21:45.722Z,29.65
2019-05-03T00:24:14.282Z,28.40
2019-05-03T00:26:42.867Z,30.95
2019-05-03T00:29:12.755Z,30.37
2019-05-03T00:31:42.333Z,27.40
2019-05-03T00:34:21.921Z,28.98
2019-05-03T00:36:52.513Z,28.57
2019-05-03T00:39:23.522Z,28.85
2019-05-03T00:41:52.181Z,30.02
2019-05-03T00:44:22.231Z,28.23
2019-05-03T00:46:51.749Z,30.08
2019-05-03T00:49:22.634Z,29.42
2019-05-03T00:51:53.583Z,30.08
2019-05-03T00:54:24.117Z,29.87
2019-05-03T00:56:52.979Z,31.15
2019-05-03T00:59:22.255Z,30.85
2019-05-03T01:01:52.326Z,30.55
2019-05-03T01:04:22.320Z,31.42
2019-05-03T01:06:52.662Z,31.73
2019-05-03T01:09:23.423Z,31.25
2019-05-03T01:11:52.681Z,31.82
2019-05-03T01:14:22.542Z,29.55
2019-05-03T01:16:52.169Z,31.10
2019-05-03T01:19:22.705Z,32.58
2019-05-03T01:21:52.062Z,33.30
2019-05-03T01:24:21.831Z,33.00
2019-05-03T01:26:52.559Z,31.95
2019-05-03T01:29:22.824Z,34.13
2019-05-03T01:31:52.826Z,34.15
2019-05-03T01:34:22.054Z,32.20
2019-05-03T01:36:52.546Z,34.90
2019-05-03T01:39:24.662Z,35.43
2019-05-03T01:41:53.632Z,34.48
2019-05-03T01:44:23.066Z,32.90
2019-05-03T01:46:53.768Z,32.28
2019-05-03T01:49:39.266Z,33.92
2019-05-03T01:52:09.494Z,33.28
2019-05-03T01:54:38.057Z,31.12
2019-05-03T01:57:06.781Z,30.32
2019-05-03T01:59:35.342Z,29.23
2019-05-03T02:02:14.834Z,29.92
2019-05-03T02:04:45.017Z,30.60
2019-05-03T02:07:13.598Z,29.85
2019-05-03T02:09:42.161Z,28.50
2019-05-03T02:12:12.626Z,28.32
2019-05-03T02:14:42.224Z,28.57
2019-05-03T02:17:12.401Z,27.65
2019-05-03T02:19:42.149Z,29.77
2019-05-03T02:22:12.034Z,30.20
2019-05-03T02:24:42.275Z,30.40
2019-05-03T02:27:12.690Z,31.23
2019-05-03T02:29:41.868Z,29.35
2019-05-03T02:32:12.923Z,29.35
2019-05-03T02:34:43.580Z,30.35
2019-05-03T02:37:13.631Z,30.60
2019-05-03T02:39:42.734Z,31.05
2019-05-03T02:42:12.000Z,31.17
2019-05-03T02:44:40.960Z,33.25
2019-05-03T02:47:11.158Z,33.80
2019-05-03T02:49:41.384Z,32.50
2019-05-03T02:52:11.590Z,31.73
2019-05-03T02:54:40.162Z,31.25
2019-05-03T02:57:08.740Z,31.65
2019-05-03T02:59:37.316Z,33.95
2019-05-03T03:02:06.525Z,35.63
2019-05-03T03:04:35.548Z,21.35
2019-05-03T03:07:05.692Z,18.05
2019-05-03T03:09:36.002Z,13.98
2019-05-03T03:12:06.852Z,10.85
2019-05-03T03:14:36.415Z,9.35
2019-05-03T03:17:06.789Z,7.53
2019-05-03T03:19:38.088Z,9.33
2019-05-03T03:22:10.345Z,7.92
2019-05-03T03:24:45.537Z,6.17
2019-05-03T03:27:16.581Z,5.85
2019-05-03T03:29:49.786Z,6.58
2019-05-03T03:32:29.601Z,7.35
2019-05-03T03:35:11.570Z,6.70
2019-05-03T03:37:40.060Z,7.08
2019-05-03T03:40:08.701Z,7.75
2019-05-03T03:42:57.448Z,8.43
2019-05-03T03:45:27.079Z,7.75
2019-05-03T03:47:57.632Z,7.00
2019-05-03T03:50:27.843Z,7.70
2019-05-03T03:53:01.334Z,8.30
2019-05-03T03:55:32.933Z,7.90
2019-05-03T03:58:06.174Z,7.50
2019-05-03T04:00:36.230Z,8.13
2019-05-03T04:03:05.983Z,9.13
2019-05-03T04:05:36.660Z,10.65
2019-05-03T04:08:05.900Z,10.28
2019-05-03T04:10:35.413Z,10.43
2019-05-03T04:13:06.779Z,11.73
2019-05-03T04:15:56.130Z,12.20
2019-05-03T04:18:26.646Z,12.07
2019-05-03T04:20:57.029Z,11.65
2019-05-03T04:23:28.061Z,9.73
2019-05-03T04:26:00.245Z,10.35
2019-05-03T04:28:35.960Z,11.60
2019-05-03T04:31:06.259Z,8.18
2019-05-03T04:33:37.578Z,7.35
2019-05-03T04:36:07.756Z,7.95
2019-05-03T04:38:38.197Z,8.28
2019-05-03T04:41:07.763Z,7.50
2019-05-03T04:43:40.408Z,6.47
2019-05-03T04:46:10.685Z,5.97
2019-05-03T04:48:39.428Z,5.20
2019-05-03T04:51:08.118Z,4.92
2019-05-03T04:53:41.650Z,5.67
2019-05-03T04:56:10.241Z,4.40
2019-05-03T04:58:38.796Z,5.12
2019-05-03T05:01:07.946Z,5.72
2019-05-03T05:03:37.146Z,5.30
2019-05-03T05:06:07.806Z,5.30
2019-05-03T05:08:37.138Z,4.78
2019-05-03T05:11:10.346Z,5.00
2019-05-03T05:13:38.064Z,4.62
2019-05-03T05:16:07.583Z,5.75
2019-05-03T05:18:40.473Z,5.35
2019-05-03T05:21:16.432Z,5.30
2019-05-03T05:23:49.106Z,5.28
2019-05-03T05:26:19.323Z,5.87
2019-05-03T05:28:49.517Z,4.97
2019-05-03T05:31:18.094Z,5.83
2019-05-03T05:33:46.654Z,5.28
2019-05-03T05:36:15.423Z,4.85
2019-05-03T05:38:45.025Z,5.45
2019-05-03T05:41:15.494Z,5.80
2019-05-03T05:43:44.646Z,5.50
2019-05-03T05:46:14.628Z,7.15
2019-05-03T05:48:48.167Z,6.47
2019-05-03T05:51:16.742Z,6.80
2019-05-03T05:53:45.313Z,6.08
2019-05-03T05:56:18.513Z,6.97
2019-05-03T05:59:05.133Z,6.65
2019-05-03T06:01:38.251Z,6.08
2019-05-03T06:04:08.582Z,8.03
2019-05-03T06:06:47.624Z,7.30
2019-05-03T06:09:20.413Z,6.60
2019-05-03T06:11:50.642Z,7.60
2019-05-03T06:14:24.536Z,7.40
2019-05-03T06:16:55.417Z,8.85
2019-05-03T06:19:27.933Z,9.00
2019-05-03T06:22:00.119Z,11.40
2019-05-03T06:24:46.470Z,11.00
2019-05-03T06:27:19.873Z,13.90
2019-05-03T06:29:49.900Z,12.30
2019-05-03T06:32:20.150Z,12.90
2019-05-03T06:34:48.717Z,13.28
2019-05-03T06:37:18.950Z,14.50
2019-05-03T06:39:47.577Z,15.05
2019-05-03T06:42:19.353Z,14.35
2019-05-03T06:44:46.374Z,13.90
2019-05-03T06:47:15.032Z,10.88
2019-05-03T06:49:44.975Z,14.40
2019-05-03T06:52:14.712Z,10.82
2019-05-03T06:54:44.984Z,8.25
2019-05-03T06:57:15.473Z,6.10
2019-05-03T07:00:01.916Z,5.30
2019-05-03T07:02:36.603Z,6.35
2019-05-03T07:05:16.979Z,6.50
2019-05-03T07:07:54.725Z,6.47
2019-05-03T07:10:30.751Z,6.40
2019-05-03T07:13:09.024Z,5.50
2019-05-03T07:15:39.337Z,5.28
2019-05-03T07:18:10.042Z,4.53
2019-05-03T07:20:50.710Z,5.70
2019-05-03T07:23:19.286Z,5.17
2019-05-03T07:25:47.841Z,3.80
2019-05-03T07:28:16.421Z,4.58
2019-05-03T07:30:45.459Z,3.70
2019-05-03T07:33:32.027Z,3.98
2019-05-03T07:36:00.991Z,3.90
2019-05-03T07:38:32.139Z,3.60
2019-05-03T07:41:01.843Z,3.70
2019-05-03T07:43:30.719Z,3.20
2019-05-03T07:46:01.527Z,2.87
2019-05-03T07:48:35.315Z,3.27
2019-05-03T07:51:05.760Z,4.10
2019-05-03T07:53:36.467Z,2.92
2019-05-03T07:56:07.598Z,3.60
2019-05-03T07:58:38.396Z,3.60
2019-05-03T08:01:10.010Z,3.65
2019-05-03T08:03:39.278Z,3.25
2019-05-03T08:06:08.255Z,3.30
2019-05-03T08:08:37.953Z,4.10
2019-05-03T08:11:07.679Z,3.10
2019-05-03T08:13:36.960Z,4.12
2019-05-03T08:16:06.577Z,3.25
2019-05-03T08:18:36.661Z,3.55
2019-05-03T08:21:06.174Z,4.22
2019-05-03T08:23:37.392Z,3.75
2019-05-03T08:26:06.274Z,3.83
2019-05-03T08:28:35.221Z,4.47
2019-05-03T08:31:18.586Z,4.10
2019-05-03T08:33:55.310Z,4.62
2019-05-03T08:36:24.743Z,3.95
2019-05-03T08:38:53.549Z,4.10
2019-05-03T08:41:24.737Z,3.83
2019-05-03T08:43:54.981Z,3.35
2019-05-03T08:46:25.361Z,3.50
2019-05-03T08:48:54.856Z,4.42
2019-05-03T08:51:24.982Z,4.35
2019-05-03T08:53:55.770Z,4.58
2019-05-03T08:56:24.567Z,4.62
2019-05-03T08:58:55.311Z,4.72
2019-05-03T09:01:25.100Z,4.20
2019-05-03T09:03:55.639Z,4.35
2019-05-03T09:06:24.772Z,4.00
2019-05-03T09:08:56.858Z,4.15
2019-05-03T09:11:33.431Z,4.35
2019-05-03T09:14:04.443Z,4.45
2019-05-03T09:16:33.173Z,5.30
2019-05-03T09:19:06.058Z,4.83
2019-05-03T09:21:36.410Z,4.80
2019-05-03T09:24:06.106Z,4.40
2019-05-03T09:26:37.069Z,5.10
2019-05-03T09:29:06.610Z,5.00
2019-05-03T09:31:36.121Z,4.42
2019-05-03T09:34:08.025Z,4.95
2019-05-03T09:36:38.125Z,5.12
2019-05-03T09:39:08.317Z,5.00
2019-05-03T09:41:38.082Z,5.00
2019-05-03T09:44:07.066Z,5.35
2019-05-03T09:46:36.976Z,5.40
2019-05-03T09:49:13.349Z,4.58
2019-05-03T09:51:37.185Z,4.45
2019-05-03T09:54:14.848Z,4.85
2019-05-03T09:57:02.233Z,4.90
2019-05-03T09:59:32.598Z,4.85
2019-05-03T10:02:04.755Z,4.70
2019-05-03T10:04:36.639Z,5.22
2019-05-03T10:07:06.359Z,5.83
2019-05-03T10:09:37.510Z,5.80
2019-05-03T10:12:08.319Z,6.90
2019-05-03T10:14:37.858Z,6.10
2019-05-03T10:17:16.947Z,7.00
2019-05-03T10:19:45.503Z,6.55
2019-05-03T10:22:15.449Z,5.62
2019-05-03T10:24:45.255Z,4.60
2019-05-03T10:27:15.198Z,3.98
2019-05-03T10:29:44.693Z,5.55
2019-05-03T10:32:16.073Z,5.53
2019-05-03T10:35:02.336Z,4.53
2019-05-03T10:37:35.870Z,5.37
2019-05-03T10:40:08.047Z,3.90
2019-05-03T10:42:35.853Z,3.55
2019-05-03T10:45:07.039Z,4.55
2019-05-03T10:47:36.146Z,3.70
2019-05-03T10:50:08.270Z,3.50
2019-05-03T10:52:41.715Z,3.67
2019-05-03T10:55:10.525Z,4.05
2019-05-03T10:57:40.741Z,4.33
2019-05-03T11:00:41.336Z,4.10
2019-05-03T11:02:49.286Z,3.83
2019-05-03T11:05:17.838Z,4.05
2019-05-03T11:07:46.419Z,3.58
2019-05-03T11:10:15.614Z,4.03
2019-05-03T11:12:44.230Z,4.20
2019-05-03T11:15:15.010Z,5.10
2019-05-03T11:17:45.369Z,4.95
2019-05-03T11:20:28.028Z,5.05
2019-05-03T11:22:45.797Z,5.83
2019-05-03T11:25:14.353Z,5.12
2019-05-03T11:27:50.529Z,5.05
2019-05-03T11:30:19.329Z,4.97
2019-05-03T11:32:52.451Z,4.95
2019-05-03T11:35:39.091Z,3.83
2019-05-03T11:38:11.998Z,4.30
2019-05-03T11:40:40.622Z,4.50
2019-05-03T11:43:09.210Z,4.70
2019-05-03T11:45:37.765Z,4.10
2019-05-03T11:48:06.490Z,4.10
2019-05-03T11:50:35.561Z,3.92
2019-05-03T11:53:05.247Z,3.27
2019-05-03T11:55:35.256Z,3.55
2019-05-03T11:58:05.918Z,3.90
2019-05-03T12:00:36.184Z,8.53
2019-05-03T12:03:21.807Z,3.00
2019-05-03T12:05:52.015Z,3.47
2019-05-03T12:08:20.602Z,3.10
2019-05-03T12:10:57.576Z,3.45
2019-05-03T12:13:21.953Z,3.20
2019-05-03T12:15:50.520Z,3.52
2019-05-03T12:18:19.355Z,3.42
2019-05-03T12:20:48.915Z,3.60
2019-05-03T12:23:18.609Z,4.03
2019-05-03T12:25:48.240Z,3.95
2019-05-03T12:28:17.181Z,4.05
2019-05-03T12:30:45.742Z,3.62
2019-05-03T12:33:15.328Z,3.72
2019-05-03T12:35:46.256Z,4.40
2019-05-03T12:38:16.514Z,3.20
2019-05-03T12:40:45.583Z,4.58
2019-05-03T12:43:14.974Z,3.92
2019-05-03T12:45:43.701Z,3.67
2019-05-03T12:48:12.262Z,3.98
2019-05-03T12:50:41.032Z,3.98
2019-05-03T12:53:09.919Z,4.58
2019-05-03T12:55:38.506Z,4.08
2019-05-03T12:58:08.654Z,3.35
2019-05-03T13:00:58.973Z,6.42
2019-05-03T13:03:37.041Z,7.17
2019-05-03T13:06:07.403Z,4.90
2019-05-03T13:08:39.160Z,16.20
2019-05-03T13:11:08.389Z,4.22
2019-05-03T13:13:37.196Z,4.22
2019-05-03T13:16:06.813Z,4.95
2019-05-03T13:18:36.104Z,3.40
2019-05-03T13:21:06.689Z,2.80
2019-05-03T13:23:36.914Z,2.80
2019-05-03T13:26:08.115Z,2.20
2019-05-03T13:28:38.346Z,2.22
2019-05-03T13:31:08.803Z,2.72
2019-05-03T13:33:37.800Z,3.27
2019-05-03T13:36:07.660Z,2.20
2019-05-03T13:38:38.156Z,2.50
2019-05-03T13:41:08.646Z,2.20
2019-05-03T13:43:38.071Z,2.12
2019-05-03T13:46:06.825Z,2.33
2019-05-03T13:48:45.315Z,2.30
2019-05-03T13:51:10.237Z,2.00
2019-05-03T13:53:39.403Z,2.22
2019-05-03T13:56:10.140Z,2.90
2019-05-03T13:58:38.842Z,3.37
2019-05-03T14:01:08.776Z,2.17
2019-05-03T14:03:38.506Z,2.30
2019-05-03T14:06:09.646Z,2.30
2019-05-03T14:08:38.898Z,2.70
2019-05-03T14:11:10.221Z,2.22
2019-05-03T14:13:39.501Z,2.25
2019-05-03T14:16:09.142Z,2.30
2019-05-03T14:18:41.419Z,2.62
2019-05-03T14:21:12.233Z,2.40
2019-05-03T14:23:45.978Z,2.30
2019-05-03T14:26:15.112Z,2.05
2019-05-03T14:28:45.196Z,2.00
2019-05-03T14:31:14.433Z,2.60
2019-05-03T14:33:44.839Z,2.70
2019-05-03T14:36:15.983Z,2.80
2019-05-03T14:38:46.898Z,2.42
2019-05-03T14:41:15.092Z,2.42
2019-05-03T14:43:43.807Z,2.30
2019-05-03T14:46:14.942Z,2.60
2019-05-03T14:48:43.009Z,2.52
2019-05-03T14:51:11.594Z,2.30
2019-05-03T14:53:40.227Z,2.27
2019-05-03T14:56:15.029Z,2.45
2019-05-03T14:58:48.456Z,2.25
2019-05-03T15:01:36.024Z,2.72
2019-05-03T15:04:10.021Z,2.75
2019-05-03T15:06:38.771Z,2.22
2019-05-03T15:09:08.994Z,2.60
2019-05-03T15:11:38.874Z,2.08
2019-05-03T15:14:09.065Z,2.45
2019-05-03T15:16:38.402Z,2.65
2019-05-03T15:19:08.534Z,2.35
2019-05-03T15:21:38.657Z,2.42
2019-05-03T15:24:09.094Z,2.20
2019-05-03T15:26:40.695Z,2.30
2019-05-03T15:29:16.885Z,2.10
2019-05-03T15:31:45.686Z,2.40
2019-05-03T15:34:15.238Z,2.80
2019-05-03T15:36:45.040Z,2.17
2019-05-03T15:39:15.442Z,2.45
2019-05-03T15:41:44.975Z,2.47
2019-05-03T15:44:21.507Z,2.25
2019-05-03T15:46:56.008Z,2.12
2019-05-03T15:49:28.063Z,3.10
2019-05-03T15:52:00.344Z,2.62
2019-05-03T15:54:29.350Z,2.87
2019-05-03T15:57:04.970Z,4.50
2019-05-03T15:59:36.177Z,4.30
2019-05-03T16:02:07.694Z,5.30
2019-05-03T16:04:37.766Z,2.95
2019-05-03T16:07:09.580Z,2.35
2019-05-03T16:09:39.170Z,3.47
2019-05-03T16:12:08.277Z,3.00
2019-05-03T16:14:37.642Z,2.60
2019-05-03T16:17:06.661Z,2.65
2019-05-03T16:19:36.184Z,2.30
2019-05-03T16:22:07.494Z,2.55
2019-05-03T16:24:36.888Z,2.10
2019-05-03T16:27:14.320Z,1.95
2019-05-03T16:29:44.525Z,2.40
2019-05-03T16:32:13.154Z,2.25
2019-05-03T16:34:41.709Z,1.95
2019-05-03T16:37:11.015Z,2.25
2019-05-03T16:39:40.384Z,2.65
2019-05-03T16:42:10.722Z,3.50
2019-05-03T16:44:39.676Z,2.37
2019-05-03T16:47:08.757Z,2.50
2019-05-03T16:49:38.161Z,2.50
2019-05-03T16:52:08.498Z,2.55
2019-05-03T16:54:37.686Z,2.62
2019-05-03T16:57:07.871Z,2.37
2019-05-03T16:59:38.115Z,2.55
2019-05-03T17:02:07.918Z,2.75
2019-05-03T17:04:38.418Z,2.80
2019-05-03T17:07:24.625Z,2.60
2019-05-03T17:10:00.431Z,2.65
2019-05-03T17:12:37.667Z,2.35
2019-05-03T17:15:10.057Z,2.75
2019-05-03T17:17:38.609Z,2.12
2019-05-03T17:20:08.930Z,2.50
2019-05-03T17:22:37.896Z,2.05
2019-05-03T17:25:08.444Z,2.75
2019-05-03T17:27:38.106Z,2.75
2019-05-03T17:30:11.123Z,2.35
2019-05-03T17:32:39.786Z,2.37
2019-05-03T17:35:08.709Z,2.20
2019-05-03T17:37:37.846Z,2.60
2019-05-03T17:40:14.910Z,2.50
2019-05-03T17:42:51.320Z,2.47
2019-05-03T17:45:21.606Z,2.65
2019-05-03T17:47:50.170Z,2.40
2019-05-03T17:50:18.742Z,2.30
2019-05-03T17:52:48.936Z,2.02
2019-05-03T17:55:37.535Z,2.37
2019-05-03T17:58:28.999Z,3.00
2019-05-03T18:01:02.396Z,2.25
2019-05-03T18:03:34.665Z,2.58
2019-05-03T18:06:08.130Z,2.42
2019-05-03T18:08:44.626Z,2.62
2019-05-03T18:11:17.518Z,2.00
2019-05-03T18:13:46.102Z,2.30
2019-05-03T18:16:14.717Z,2.42
2019-05-03T18:18:45.325Z,2.12
2019-05-03T18:21:15.044Z,2.58
2019-05-03T18:23:45.450Z,2.75
2019-05-03T18:26:14.469Z,2.98
2019-05-03T18:28:44.634Z,3.40
2019-05-03T18:31:14.613Z,4.00
2019-05-03T18:33:44.302Z,3.50
2019-05-03T18:36:14.671Z,3.27
2019-05-03T18:38:44.581Z,2.95
2019-05-03T18:41:13.926Z,3.30
2019-05-03T18:44:01.371Z,3.87
2019-05-03T18:46:34.183Z,4.83
2019-05-03T18:49:04.615Z,3.15
2019-05-03T18:51:34.795Z,3.90
2019-05-03T18:54:07.063Z,3.65
2019-05-03T18:56:35.471Z,3.45
2019-05-03T18:59:05.160Z,4.42
2019-05-03T19:01:34.939Z,7.12
2019-05-03T19:04:06.334Z,5.58
2019-05-03T19:06:35.667Z,5.28
2019-05-03T19:09:25.080Z,4.05
2019-05-03T19:11:55.616Z,3.52
2019-05-03T19:14:26.930Z,3.47
2019-05-03T19:17:15.291Z,3.67
2019-05-03T19:19:45.145Z,4.30
2019-05-03T19:22:15.395Z,4.05
2019-05-03T19:24:44.485Z,3.75
2019-05-03T19:27:13.178Z,3.92
2019-05-03T19:29:41.738Z,4.33
2019-05-03T19:32:10.397Z,3.80
2019-05-03T19:34:50.069Z,3.98
2019-05-03T19:37:09.498Z,3.92
2019-05-03T19:39:38.222Z,4.03
2019-05-03T19:42:07.594Z,4.25
2019-05-03T19:44:37.167Z,3.52
2019-05-03T19:47:06.762Z,3.83
2019-05-03T19:49:36.506Z,3.60
2019-05-03T19:52:06.251Z,3.62
2019-05-03T19:54:36.832Z,3.42
2019-05-03T19:57:06.708Z,4.25
2019-05-03T19:59:49.409Z,3.52
2019-05-03T20:02:36.436Z,4.30
2019-05-03T20:05:25.190Z,3.95
2019-05-03T20:08:07.802Z,4.10
2019-05-03T20:10:36.850Z,3.75
2019-05-03T20:13:06.520Z,3.92
2019-05-03T20:15:35.446Z,3.92
2019-05-03T20:18:06.854Z,4.10
2019-05-03T20:20:36.008Z,4.85
2019-05-03T20:23:07.440Z,4.62
2019-05-03T20:25:37.224Z,4.20
2019-05-03T20:28:07.016Z,4.62
2019-05-03T20:30:36.762Z,4.10
2019-05-03T20:33:07.255Z,4.72
2019-05-03T20:35:36.468Z,4.85
2019-05-03T20:38:06.164Z,4.10
2019-05-03T20:40:35.609Z,3.60
2019-05-03T20:43:25.657Z,3.87
2019-05-03T20:45:55.790Z,4.60
2019-05-03T20:48:26.314Z,4.42
2019-05-03T20:50:55.222Z,4.53
2019-05-03T20:53:25.086Z,4.03
2019-05-03T20:55:54.569Z,4.58
2019-05-03T20:58:25.134Z,4.67
2019-05-03T21:00:54.523Z,4.55
2019-05-03T21:03:24.787Z,4.17
2019-05-03T21:05:55.201Z,4.70
2019-05-03T21:08:25.490Z,5.10
2019-05-03T21:10:55.145Z,5.25
2019-05-03T21:13:25.269Z,4.60
2019-05-03T21:16:12.208Z,5.00
2019-05-03T21:18:42.424Z,4.62
2019-05-03T21:21:12.620Z,4.55
2019-05-03T21:23:44.837Z,4.70
2019-05-03T21:26:16.498Z,5.42
2019-05-03T21:28:44.951Z,5.50
2019-05-03T21:31:15.497Z,5.10
2019-05-03T21:33:44.536Z,5.03
2019-05-03T21:36:14.949Z,5.25
2019-05-03T21:38:44.448Z,4.87
2019-05-03T21:41:13.176Z,5.12
2019-05-03T21:43:41.759Z,5.45
2019-05-03T21:46:11.961Z,5.33
2019-05-03T21:48:50.881Z,6.00
2019-05-03T21:51:19.442Z,6.15
2019-05-03T21:53:48.022Z,5.40
2019-05-03T21:56:16.575Z,4.67
2019-05-03T21:58:45.157Z,5.42
2019-05-03T22:01:15.532Z,5.80
2019-05-03T22:03:44.745Z,6.20
2019-05-03T22:06:16.855Z,6.35
2019-05-03T22:08:45.471Z,6.33
2019-05-03T22:11:14.914Z,6.20
2019-05-03T22:13:45.443Z,6.12
2019-05-03T22:16:15.853Z,6.42
2019-05-03T22:18:45.459Z,6.42
2019-05-03T22:21:21.436Z,6.20
2019-05-03T22:23:51.670Z,5.95
2019-05-03T22:26:21.867Z,6.60
2019-05-03T22:28:50.429Z,7.58
2019-05-03T22:31:19.006Z,6.95
2019-05-03T22:33:47.566Z,6.20
2019-05-03T22:36:16.150Z,6.37
2019-05-03T22:38:45.351Z,6.00
2019-05-03T22:41:14.828Z,6.90
2019-05-03T22:43:45.520Z,7.25
2019-05-03T22:46:14.577Z,5.90
2019-05-03T22:48:44.927Z,7.60
2019-05-03T22:51:15.109Z,6.17
2019-05-03T22:53:44.835Z,6.53
2019-05-03T22:56:14.503Z,6.00
2019-05-03T22:58:43.198Z,6.35
2019-05-03T23:01:11.778Z,6.03
2019-05-03T23:03:44.935Z,5.35
2019-05-03T23:06:20.399Z,6.15
2019-05-03T23:08:43.926Z,5.67
2019-05-03T23:11:12.504Z,6.22
2019-05-03T23:13:41.072Z,5.90
2019-05-03T23:16:18.364Z,5.85
2019-05-03T23:18:46.917Z,6.25
2019-05-03T23:21:17.142Z,5.97
2019-05-03T23:23:49.668Z,6.35
2019-05-03T23:26:18.317Z,5.33
2019-05-03T23:28:47.151Z,5.50
2019-05-03T23:31:15.998Z,5.00
2019-05-03T23:33:45.217Z,5.20
2019-05-03T23:36:15.427Z,5.40
2019-05-03T23:38:45.237Z,5.42
2019-05-03T23:41:15.337Z,6.20
2019-05-03T23:43:45.049Z,5.60
2019-05-03T23:46:15.620Z,5.50
2019-05-03T23:48:44.647Z,5.72
2019-05-03T23:51:15.020Z,6.20
2019-05-03T23:53:44.623Z,5.58
2019-05-03T23:56:20.965Z,5.30
2019-05-03T23:58:49.533Z,5.60
